This demonstration page uses our WeatherBlox Daily Observations layout. Learn more.

38.89511, -77.03637

Hourly Observations for April 13, 2015

Temp ( °F °C ) Dew Point ( °F °C ) Humidity (%) Winds ( mph kmh ) Pressure ( in mb ) Visibility ( mi km ) Precip ( " mm )
12:52 am 00:52 Partly Cloudy 55 13 37 3 51 51 S 8 13 30.33 1027 10 16.09344 0 0
1:52 am 01:52 Partly Cloudy 54 12 37 3 54 54 S 10 17 30.3 1026 10 16.09344 0 0
2:52 am 02:52 Partly Cloudy 52 11 37 3 58 58 SE 3 6 30.3 1026 10 16.09344 0 0
3:52 am 03:52 Mostly Cloudy 54 12 37 3 54 54 S 3 6 30.3 1026 10 16.09344 0 0
4:52 am 04:52 Mostly Cloudy 52 11 37 3 58 58 SE 5 7 30.3 1026 10 16.09344 0 0
5:52 am 05:52 Mostly Cloudy 54 12 37 3 54 54 S 8 13 30.3 1026 10 16.09344 0 0
6:52 am 06:52 Mostly Cloudy 54 12 39 4 58 58 S 21 33 30.27 1025 10 16.09344 0 0
7:52 am 07:52 Mostly Cloudy 55 13 39 4 55 55 W 3 6 30.33 1027 10 16.09344 0 0
8:52 am 08:52 Mostly Cloudy 61 16 43 6 52 52 S 8 13 30.33 1027 10 16.09344 0 0
9:52 am 09:52 Cloudy 64 18 46 8 52 52 S 13 20 30.33 1027 10 16.09344 0 0
10:52 am 10:52 Mostly Cloudy 70 21 52 11 53 53 S 16 26 30.3 1026 10 16.09344 0 0
11:52 am 11:52 Partly Cloudy 72 22 52 11 50 50 SSW 15 24 30.3 1026 10 16.09344 0 0
12:52 pm 12:52 Mostly Cloudy 75 24 54 12 47 47 S 20 31 30.24 1024 10 16.09344 0 0
1:52 pm 13:52 Cloudy 79 26 54 12 42 42 S 14 22 30.21 1023 10 16.09344 0 0
2:52 pm 14:52 Cloudy 79 26 54 12 42 42 S 17 28 30.21 1023 10 16.09344 0 0
3:52 pm 15:52 Mostly Cloudy 79 26 54 12 42 42 SSW 15 24 30.18 1022 10 16.09344 0 0
4:52 pm 16:52 Mostly Cloudy 79 26 52 11 39 39 S 13 20 30.15 1021 10 16.09344 0 0
5:52 pm 17:52 Partly Cloudy 75 24 52 11 44 44 S 13 20 30.12 1020 10 16.09344 0 0
6:52 pm 18:52 Partly Cloudy 75 24 50 10 41 41 SSE 17 28 30.12 1020 10 16.09344 0 0
7:52 pm 19:52 Mostly Cloudy 72 22 48 9 44 44 SSE 16 26 30.15 1021 10 16.09344 0 0
8:52 pm 20:52 Partly Cloudy 68 20 48 9 49 49 S 14 22 30.15 1021 10 16.09344 0 0
9:52 pm 21:52 Partly Cloudy 66 19 48 9 52 52 S 14 22 30.15 1021 10 16.09344 0 0
10:52 pm 22:52 Partly Cloudy 64 18 50 10 60 60 S 10 17 30.15 1021 10 16.09344 0 0
11:52 pm 23:52 Partly Cloudy 66 19 52 11 60 60 S 10 17 30.15 1021 10 16.09344 0 0

Powered by AerisWeather